sensor_id;sensor_type;location;lat;lon;timestamp;temperature;humidity
37658;DHT22;23500;53.268;8.308;2023-02-24T00:02:13;15.70;72.50
37658;DHT22;23500;53.268;8.308;2023-02-24T00:04:39;15.70;72.50
37658;DHT22;23500;53.268;8.308;2023-02-24T00:07:09;15.60;72.00
37658;DHT22;23500;53.268;8.308;2023-02-24T00:09:35;15.60;72.30
37658;DHT22;23500;53.268;8.308;2023-02-24T00:12:05;15.60;72.40
37658;DHT22;23500;53.268;8.308;2023-02-24T00:14:36;15.60;72.60
37658;DHT22;23500;53.268;8.308;2023-02-24T00:17:02;15.60;72.70
37658;DHT22;23500;53.268;8.308;2023-02-24T00:19:29;15.60;72.60
37658;DHT22;23500;53.268;8.308;2023-02-24T00:22:02;15.60;72.70
37658;DHT22;23500;53.268;8.308;2023-02-24T00:24:28;15.60;72.80
37658;DHT22;23500;53.268;8.308;2023-02-24T00:26:57;15.60;72.90
37658;DHT22;23500;53.268;8.308;2023-02-24T00:29:24;15.60;73.10
37658;DHT22;23500;53.268;8.308;2023-02-24T00:31:53;15.60;72.90
37658;DHT22;23500;53.268;8.308;2023-02-24T00:34:28;15.60;72.90
37658;DHT22;23500;53.268;8.308;2023-02-24T00:36:54;15.60;72.80
37658;DHT22;23500;53.268;8.308;2023-02-24T00:39:20;15.60;72.70
37658;DHT22;23500;53.268;8.308;2023-02-24T00:41:57;15.50;72.80
37658;DHT22;23500;53.268;8.308;2023-02-24T00:44:29;15.50;72.80
37658;DHT22;23500;53.268;8.308;2023-02-24T00:46:57;15.50;72.80
37658;DHT22;23500;53.268;8.308;2023-02-24T00:49:25;15.50;73.00
37658;DHT22;23500;53.268;8.308;2023-02-24T00:51:51;15.50;73.00
37658;DHT22;23500;53.268;8.308;2023-02-24T00:54:19;15.50;73.00
37658;DHT22;23500;53.268;8.308;2023-02-24T00:56:46;15.50;73.30
37658;DHT22;23500;53.268;8.308;2023-02-24T00:59:14;15.50;73.50
37658;DHT22;23500;53.268;8.308;2023-02-24T01:01:41;15.50;73.60
37658;DHT22;23500;53.268;8.308;2023-02-24T01:04:09;15.50;73.60
37658;DHT22;23500;53.268;8.308;2023-02-24T01:06:38;15.50;73.60
37658;DHT22;23500;53.268;8.308;2023-02-24T01:09:04;15.50;73.60
37658;DHT22;23500;53.268;8.308;2023-02-24T01:11:34;15.50;73.90
37658;DHT22;23500;53.268;8.308;2023-02-24T01:14:20;15.50;73.70
37658;DHT22;23500;53.268;8.308;2023-02-24T01:16:48;15.60;73.60
37658;DHT22;23500;53.268;8.308;2023-02-24T01:19:27;15.80;73.40
37658;DHT22;23500;53.268;8.308;2023-02-24T01:21:57;15.90;73.20
37658;DHT22;23500;53.268;8.308;2023-02-24T01:24:25;16.10;72.80
37658;DHT22;23500;53.268;8.308;2023-02-24T01:26:52;16.30;72.40
37658;DHT22;23500;53.268;8.308;2023-02-24T01:29:18;16.50;71.90
37658;DHT22;23500;53.268;8.308;2023-02-24T01:31:43;16.60;71.30
37658;DHT22;23500;53.268;8.308;2023-02-24T01:34:10;16.80;70.80
37658;DHT22;23500;53.268;8.308;2023-02-24T01:36:38;16.90;70.20
37658;DHT22;23500;53.268;8.308;2023-02-24T01:39:05;17.90;67.40
37658;DHT22;23500;53.268;8.308;2023-02-24T01:41:43;19.10;63.20
37658;DHT22;23500;53.268;8.308;2023-02-24T01:46:46;20.90;57.70
37658;DHT22;23500;53.268;8.308;2023-02-24T01:49:19;21.40;56.50
37658;DHT22;23500;53.268;8.308;2023-02-24T01:52:21;21.60;56.00
37658;DHT22;23500;53.268;8.308;2023-02-24T01:54:56;21.60;55.60
37658;DHT22;23500;53.268;8.308;2023-02-24T01:57:25;21.50;55.60
37658;DHT22;23500;53.268;8.308;2023-02-24T01:59:55;21.40;55.80
37658;DHT22;23500;53.268;8.308;2023-02-24T02:02:27;21.30;56.00
37658;DHT22;23500;53.268;8.308;2023-02-24T02:05:02;21.00;56.60
37658;DHT22;23500;53.268;8.308;2023-02-24T02:07:28;20.80;57.10
37658;DHT22;23500;53.268;8.308;2023-02-24T02:09:56;20.50;57.80
37658;DHT22;23500;53.268;8.308;2023-02-24T02:12:26;20.20;58.40
37658;DHT22;23500;53.268;8.308;2023-02-24T02:14:54;20.00;59.00
37658;DHT22;23500;53.268;8.308;2023-02-24T02:17:29;19.70;59.30
37658;DHT22;23500;53.268;8.308;2023-02-24T02:29:15;18.60;62.10
37658;DHT22;23500;53.268;8.308;2023-02-24T02:34:58;18.10;64.20
37658;DHT22;23500;53.268;8.308;2023-02-24T02:37:51;17.90;65.10
37658;DHT22;23500;53.268;8.308;2023-02-24T02:40:27;17.70;65.90
37658;DHT22;23500;53.268;8.308;2023-02-24T02:43:05;17.60;67.20
37658;DHT22;23500;53.268;8.308;2023-02-24T02:45:36;17.50;66.90
37658;DHT22;23500;53.268;8.308;2023-02-24T02:48:33;17.40;67.40
37658;DHT22;23500;53.268;8.308;2023-02-24T02:51:10;17.30;68.00
37658;DHT22;23500;53.268;8.308;2023-02-24T02:53:48;17.20;68.20
37658;DHT22;23500;53.268;8.308;2023-02-24T02:56:22;17.10;68.50
37658;DHT22;23500;53.268;8.308;2023-02-24T02:58:53;17.10;68.70
37658;DHT22;23500;53.268;8.308;2023-02-24T03:01:24;17.00;69.00
37658;DHT22;23500;53.268;8.308;2023-02-24T03:03:56;17.00;69.10
37658;DHT22;23500;53.268;8.308;2023-02-24T03:06:27;17.00;69.20
37658;DHT22;23500;53.268;8.308;2023-02-24T03:08:59;17.00;69.30
37658;DHT22;23500;53.268;8.308;2023-02-24T03:11:26;17.10;69.30
37658;DHT22;23500;53.268;8.308;2023-02-24T03:13:55;17.10;69.10
37658;DHT22;23500;53.268;8.308;2023-02-24T03:16:23;17.20;69.00
37658;DHT22;23500;53.268;8.308;2023-02-24T03:18:58;17.20;68.90
37658;DHT22;23500;53.268;8.308;2023-02-24T03:21:33;17.20;68.80
37658;DHT22;23500;53.268;8.308;2023-02-24T03:24:01;17.20;68.70
37658;DHT22;23500;53.268;8.308;2023-02-24T03:29:12;17.20;68.60
37658;DHT22;23500;53.268;8.308;2023-02-24T03:31:50;17.20;68.70
37658;DHT22;23500;53.268;8.308;2023-02-24T03:34:51;17.20;68.70
37658;DHT22;23500;53.268;8.308;2023-02-24T03:37:12;17.20;68.80
37658;DHT22;23500;53.268;8.308;2023-02-24T03:39:38;17.10;68.90
37658;DHT22;23500;53.268;8.308;2023-02-24T03:42:13;17.10;69.00
37658;DHT22;23500;53.268;8.308;2023-02-24T03:44:41;17.10;69.80
37658;DHT22;23500;53.268;8.308;2023-02-24T03:47:07;17.00;69.20
37658;DHT22;23500;53.268;8.308;2023-02-24T03:49:34;17.00;69.30
37658;DHT22;23500;53.268;8.308;2023-02-24T03:52:18;17.00;69.30
37658;DHT22;23500;53.268;8.308;2023-02-24T04:09:01;16.80;70.00
37658;DHT22;23500;53.268;8.308;2023-02-24T04:11:38;16.90;69.90
37658;DHT22;23500;53.268;8.308;2023-02-24T04:14:08;16.90;69.80
37658;DHT22;23500;53.268;8.308;2023-02-24T04:17:02;16.90;69.80
37658;DHT22;23500;53.268;8.308;2023-02-24T04:19:35;17.00;69.70
37658;DHT22;23500;53.268;8.308;2023-02-24T04:22:07;17.00;69.50
37658;DHT22;23500;53.268;8.308;2023-02-24T04:24:36;17.00;69.40
37658;DHT22;23500;53.268;8.308;2023-02-24T04:27:04;17.00;69.40
37658;DHT22;23500;53.268;8.308;2023-02-24T04:29:33;17.00;69.30
37658;DHT22;23500;53.268;8.308;2023-02-24T04:32:07;17.10;69.30
37658;DHT22;23500;53.268;8.308;2023-02-24T04:34:34;17.00;69.30
37658;DHT22;23500;53.268;8.308;2023-02-24T04:37:00;17.00;69.30
37658;DHT22;23500;53.268;8.308;2023-02-24T04:39:27;17.00;69.30
37658;DHT22;23500;53.268;8.308;2023-02-24T04:41:53;17.00;69.40
37658;DHT22;23500;53.268;8.308;2023-02-24T04:44:21;17.00;69.50
37658;DHT22;23500;53.268;8.308;2023-02-24T04:46:47;16.90;69.50
37658;DHT22;23500;53.268;8.308;2023-02-24T04:49:17;16.90;69.60
37658;DHT22;23500;53.268;8.308;2023-02-24T04:51:44;16.90;69.70
37658;DHT22;23500;53.268;8.308;2023-02-24T04:54:11;16.80;69.70
37658;DHT22;23500;53.268;8.308;2023-02-24T04:56:42;16.80;69.90
37658;DHT22;23500;53.268;8.308;2023-02-24T04:59:09;16.80;70.00
37658;DHT22;23500;53.268;8.308;2023-02-24T05:01:36;16.80;70.10
37658;DHT22;23500;53.268;8.308;2023-02-24T05:04:06;16.80;70.10
37658;DHT22;23500;53.268;8.308;2023-02-24T05:06:31;16.80;70.10
37658;DHT22;23500;53.268;8.308;2023-02-24T05:08:57;16.80;70.10
37658;DHT22;23500;53.268;8.308;2023-02-24T05:11:26;16.80;70.00
37658;DHT22;23500;53.268;8.308;2023-02-24T05:13:57;16.80;69.90
37658;DHT22;23500;53.268;8.308;2023-02-24T05:16:23;16.90;69.80
37658;DHT22;23500;53.268;8.308;2023-02-24T05:18:48;16.90;69.70
37658;DHT22;23500;53.268;8.308;2023-02-24T05:21:15;16.90;69.60
37658;DHT22;23500;53.268;8.308;2023-02-24T05:24:00;16.90;69.50
37658;DHT22;23500;53.268;8.308;2023-02-24T05:26:32;16.90;69.50
37658;DHT22;23500;53.268;8.308;2023-02-24T05:29:00;16.90;69.50
37658;DHT22;23500;53.268;8.308;2023-02-24T05:31:27;16.90;69.50
37658;DHT22;23500;53.268;8.308;2023-02-24T05:34:02;16.90;69.50
37658;DHT22;23500;53.268;8.308;2023-02-24T05:36:37;16.90;69.60
37658;DHT22;23500;53.268;8.308;2023-02-24T05:39:05;16.90;69.60
37658;DHT22;23500;53.268;8.308;2023-02-24T05:41:39;16.90;69.60
37658;DHT22;23500;53.268;8.308;2023-02-24T05:44:11;16.80;69.70
37658;DHT22;23500;53.268;8.308;2023-02-24T05:46:39;16.80;69.70
37658;DHT22;23500;53.268;8.308;2023-02-24T05:49:09;16.80;69.80
37658;DHT22;23500;53.268;8.308;2023-02-24T05:51:37;16.80;69.90
37658;DHT22;23500;53.268;8.308;2023-02-24T05:54:09;16.70;70.00
37658;DHT22;23500;53.268;8.308;2023-02-24T05:56:38;16.70;70.10
37658;DHT22;23500;53.268;8.308;2023-02-24T05:59:06;16.70;70.10
37658;DHT22;23500;53.268;8.308;2023-02-24T06:01:37;16.70;70.10
37658;DHT22;23500;53.268;8.308;2023-02-24T06:04:06;16.70;70.10
37658;DHT22;23500;53.268;8.308;2023-02-24T06:06:40;16.70;70.10
37658;DHT22;23500;53.268;8.308;2023-02-24T06:09:08;16.80;70.00
37658;DHT22;23500;53.268;8.308;2023-02-24T06:11:36;16.80;69.90
37658;DHT22;23500;53.268;8.308;2023-02-24T06:14:03;16.80;69.90
37658;DHT22;23500;53.268;8.308;2023-02-24T06:16:32;16.80;69.80
37658;DHT22;23500;53.268;8.308;2023-02-24T06:18:58;16.80;69.80
37658;DHT22;23500;53.268;8.308;2023-02-24T06:21:24;16.80;69.80
37658;DHT22;23500;53.268;8.308;2023-02-24T06:23:58;16.80;69.80
37658;DHT22;23500;53.268;8.308;2023-02-24T06:26:25;16.80;69.90
37658;DHT22;23500;53.268;8.308;2023-02-24T06:28:55;16.80;69.90
37658;DHT22;23500;53.268;8.308;2023-02-24T06:31:21;16.80;69.90
37658;DHT22;23500;53.268;8.308;2023-02-24T06:33:47;16.80;69.90
37658;DHT22;23500;53.268;8.308;2023-02-24T06:36:13;16.80;69.90
37658;DHT22;23500;53.268;8.308;2023-02-24T06:38:40;16.80;69.90
37658;DHT22;23500;53.268;8.308;2023-02-24T06:41:06;16.80;69.90
37658;DHT22;23500;53.268;8.308;2023-02-24T06:43:43;16.80;69.90
37658;DHT22;23500;53.268;8.308;2023-02-24T06:46:13;16.80;69.90
37658;DHT22;23500;53.268;8.308;2023-02-24T06:48:40;16.80;69.90
37658;DHT22;23500;53.268;8.308;2023-02-24T06:51:08;16.70;69.80
37658;DHT22;23500;53.268;8.308;2023-02-24T06:53:35;16.70;69.80
37658;DHT22;23500;53.268;8.308;2023-02-24T06:56:08;16.70;69.90
37658;DHT22;23500;53.268;8.308;2023-02-24T06:58:43;16.70;70.00
37658;DHT22;23500;53.268;8.308;2023-02-24T07:01:11;16.70;70.00
37658;DHT22;23500;53.268;8.308;2023-02-24T07:03:38;16.70;70.10
37658;DHT22;23500;53.268;8.308;2023-02-24T07:06:08;16.60;70.00
37658;DHT22;23500;53.268;8.308;2023-02-24T07:08:49;16.60;70.10
37658;DHT22;23500;53.268;8.308;2023-02-24T07:11:16;16.60;70.10
37658;DHT22;23500;53.268;8.308;2023-02-24T07:13:44;16.60;70.20
37658;DHT22;23500;53.268;8.308;2023-02-24T07:16:12;16.60;70.20
37658;DHT22;23500;53.268;8.308;2023-02-24T07:18:41;16.60;70.30
37658;DHT22;23500;53.268;8.308;2023-02-24T07:21:09;16.60;70.20
37658;DHT22;23500;53.268;8.308;2023-02-24T07:23:39;16.60;70.20
37658;DHT22;23500;53.268;8.308;2023-02-24T07:26:13;16.60;70.20
37658;DHT22;23500;53.268;8.308;2023-02-24T07:28:40;16.60;70.10
37658;DHT22;23500;53.268;8.308;2023-02-24T07:31:08;16.70;70.10
37658;DHT22;23500;53.268;8.308;2023-02-24T07:33:38;16.70;70.10
37658;DHT22;23500;53.268;8.308;2023-02-24T07:36:06;16.70;70.10
37658;DHT22;23500;53.268;8.308;2023-02-24T07:38:38;16.70;70.00
37658;DHT22;23500;53.268;8.308;2023-02-24T07:41:04;16.70;69.90
37658;DHT22;23500;53.268;8.308;2023-02-24T07:43:37;16.70;69.80
37658;DHT22;23500;53.268;8.308;2023-02-24T07:46:09;16.70;69.80
37658;DHT22;23500;53.268;8.308;2023-02-24T07:48:40;16.70;69.90
37658;DHT22;23500;53.268;8.308;2023-02-24T07:51:14;16.70;69.90
37658;DHT22;23500;53.268;8.308;2023-02-24T07:53:40;16.70;70.00
37658;DHT22;23500;53.268;8.308;2023-02-24T07:56:11;16.70;70.00
37658;DHT22;23500;53.268;8.308;2023-02-24T07:58:48;16.60;70.00
37658;DHT22;23500;53.268;8.308;2023-02-24T08:01:17;16.60;70.00
37658;DHT22;23500;53.268;8.308;2023-02-24T08:03:57;16.60;70.10
37658;DHT22;23500;53.268;8.308;2023-02-24T08:06:39;16.60;70.20
37658;DHT22;23500;53.268;8.308;2023-02-24T08:09:14;16.60;70.20
37658;DHT22;23500;53.268;8.308;2023-02-24T08:11:46;16.60;70.20
37658;DHT22;23500;53.268;8.308;2023-02-24T08:14:20;16.60;70.20
37658;DHT22;23500;53.268;8.308;2023-02-24T08:16:50;16.60;70.20
37658;DHT22;23500;53.268;8.308;2023-02-24T08:19:18;16.60;70.20
37658;DHT22;23500;53.268;8.308;2023-02-24T08:21:47;16.60;70.00
37658;DHT22;23500;53.268;8.308;2023-02-24T08:24:20;16.70;70.10
37658;DHT22;23500;53.268;8.308;2023-02-24T08:26:50;16.70;70.10
37658;DHT22;23500;53.268;8.308;2023-02-24T08:29:30;16.70;70.00
37658;DHT22;23500;53.268;8.308;2023-02-24T08:32:01;16.70;69.90
37658;DHT22;23500;53.268;8.308;2023-02-24T08:34:27;16.70;69.80
37658;DHT22;23500;53.268;8.308;2023-02-24T08:36:56;16.70;69.80
37658;DHT22;23500;53.268;8.308;2023-02-24T08:39:22;16.70;69.80
37658;DHT22;23500;53.268;8.308;2023-02-24T08:41:48;16.70;69.70
37658;DHT22;23500;53.268;8.308;2023-02-24T08:44:19;16.70;69.70
37658;DHT22;23500;53.268;8.308;2023-02-24T08:46:48;16.70;69.70
37658;DHT22;23500;53.268;8.308;2023-02-24T08:49:16;16.70;69.60
37658;DHT22;23500;53.268;8.308;2023-02-24T08:51:44;16.70;69.70
37658;DHT22;23500;53.268;8.308;2023-02-24T08:54:19;16.70;69.70
37658;DHT22;23500;53.268;8.308;2023-02-24T08:56:54;16.70;69.70
37658;DHT22;23500;53.268;8.308;2023-02-24T08:59:22;16.70;69.80
37658;DHT22;23500;53.268;8.308;2023-02-24T09:02:13;16.70;69.80
37658;DHT22;23500;53.268;8.308;2023-02-24T09:04:48;16.70;69.90
37658;DHT22;23500;53.268;8.308;2023-02-24T09:07:19;16.60;69.90
37658;DHT22;23500;53.268;8.308;2023-02-24T09:09:45;16.60;69.90
37658;DHT22;23500;53.268;8.308;2023-02-24T09:12:12;16.60;69.90
37658;DHT22;23500;53.268;8.308;2023-02-24T09:15:11;16.70;69.80
37658;DHT22;23500;53.268;8.308;2023-02-24T09:17:36;16.70;69.80
37658;DHT22;23500;53.268;8.308;2023-02-24T09:20:21;16.70;69.70
37658;DHT22;23500;53.268;8.308;2023-02-24T09:22:57;16.70;69.70
37658;DHT22;23500;53.268;8.308;2023-02-24T09:25:29;16.70;69.60
37658;DHT22;23500;53.268;8.308;2023-02-24T09:28:13;16.70;69.60
37658;DHT22;23500;53.268;8.308;2023-02-24T09:33:22;16.70;69.40
37658;DHT22;23500;53.268;8.308;2023-02-24T09:38:15;16.70;69.50
37658;DHT22;23500;53.268;8.308;2023-02-24T09:40:48;16.70;69.40
37658;DHT22;23500;53.268;8.308;2023-02-24T09:43:26;16.70;69.50
37658;DHT22;23500;53.268;8.308;2023-02-24T09:46:02;16.70;69.50
37658;DHT22;23500;53.268;8.308;2023-02-24T09:48:44;16.70;69.50
37658;DHT22;23500;53.268;8.308;2023-02-24T09:51:16;16.70;69.60
37658;DHT22;23500;53.268;8.308;2023-02-24T09:53:47;16.60;69.60
37658;DHT22;23500;53.268;8.308;2023-02-24T09:56:24;16.60;70.40
37658;DHT22;23500;53.268;8.308;2023-02-24T09:59:07;16.60;69.70
37658;DHT22;23500;53.268;8.308;2023-02-24T10:04:17;16.60;69.90
37658;DHT22;23500;53.268;8.308;2023-02-24T10:14:55;16.60;70.00
37658;DHT22;23500;53.268;8.308;2023-02-24T10:17:42;16.60;69.90
37658;DHT22;23500;53.268;8.308;2023-02-24T10:20:19;16.60;69.80
37658;DHT22;23500;53.268;8.308;2023-02-24T10:26:31;16.70;69.60
37658;DHT22;23500;53.268;8.308;2023-02-24T10:32:15;16.70;69.50
37658;DHT22;23500;53.268;8.308;2023-02-24T10:34:43;16.70;69.40
37658;DHT22;23500;53.268;8.308;2023-02-24T10:37:14;16.70;69.40
37658;DHT22;23500;53.268;8.308;2023-02-24T10:39:44;16.70;69.40
37658;DHT22;23500;53.268;8.308;2023-02-24T10:42:29;16.70;69.40
37658;DHT22;23500;53.268;8.308;2023-02-24T10:45:28;16.70;69.40
37658;DHT22;23500;53.268;8.308;2023-02-24T10:47:58;16.70;69.40
37658;DHT22;23500;53.268;8.308;2023-02-24T10:53:11;16.60;69.50
37658;DHT22;23500;53.268;8.308;2023-02-24T10:55:51;16.60;69.60
37658;DHT22;23500;53.268;8.308;2023-02-24T10:58:29;16.60;69.60
37658;DHT22;23500;53.268;8.308;2023-02-24T11:01:32;16.60;69.60
37658;DHT22;23500;53.268;8.308;2023-02-24T11:04:20;16.60;69.50
37658;DHT22;23500;53.268;8.308;2023-02-24T11:07:02;16.70;69.50
37658;DHT22;23500;53.268;8.308;2023-02-24T11:09:34;16.70;69.50
37658;DHT22;23500;53.268;8.308;2023-02-24T11:12:23;16.70;69.30
37658;DHT22;23500;53.268;8.308;2023-02-24T11:18:30;16.80;69.00
37658;DHT22;23500;53.268;8.308;2023-02-24T11:21:02;16.90;69.00
37658;DHT22;23500;53.268;8.308;2023-02-24T11:26:02;16.90;68.70
37658;DHT22;23500;53.268;8.308;2023-02-24T11:45:17;17.10;67.80
37658;DHT22;23500;53.268;8.308;2023-02-24T11:56:16;17.10;68.10
37658;DHT22;23500;53.268;8.308;2023-02-24T12:01:42;17.10;68.10
37658;DHT22;23500;53.268;8.308;2023-02-24T12:04:31;17.10;68.10
37658;DHT22;23500;53.268;8.308;2023-02-24T12:07:35;17.10;68.10
37658;DHT22;23500;53.268;8.308;2023-02-24T12:10:23;17.10;68.10
37658;DHT22;23500;53.268;8.308;2023-02-24T12:15:28;17.20;68.00
37658;DHT22;23500;53.268;8.308;2023-02-24T12:20:53;17.20;67.80
37658;DHT22;23500;53.268;8.308;2023-02-24T12:23:44;17.30;67.70
37658;DHT22;23500;53.268;8.308;2023-02-24T12:26:18;17.30;67.60
37658;DHT22;23500;53.268;8.308;2023-02-24T12:45:53;17.40;67.30
37658;DHT22;23500;53.268;8.308;2023-02-24T12:59:19;17.30;67.30
37658;DHT22;23500;53.268;8.308;2023-02-24T13:04:51;17.30;67.20
37658;DHT22;23500;53.268;8.308;2023-02-24T13:10:36;17.30;67.30
37658;DHT22;23500;53.268;8.308;2023-02-24T13:13:06;17.30;67.30
37658;DHT22;23500;53.268;8.308;2023-02-24T13:15:35;17.30;67.30
37658;DHT22;23500;53.268;8.308;2023-02-24T13:18:00;17.30;67.40
37658;DHT22;23500;53.268;8.308;2023-02-24T13:20:36;17.30;67.30
37658;DHT22;23500;53.268;8.308;2023-02-24T13:23:15;17.30;67.30
37658;DHT22;23500;53.268;8.308;2023-02-24T13:25:52;17.30;67.20
37658;DHT22;23500;53.268;8.308;2023-02-24T13:28:26;17.40;67.20
37658;DHT22;23500;53.268;8.308;2023-02-24T13:31:02;17.40;67.10
37658;DHT22;23500;53.268;8.308;2023-02-24T13:33:39;17.40;67.10
37658;DHT22;23500;53.268;8.308;2023-02-24T13:36:19;17.40;67.00
37658;DHT22;23500;53.268;8.308;2023-02-24T13:39:06;17.40;67.00
37658;DHT22;23500;53.268;8.308;2023-02-24T13:44:00;17.40;66.80
37658;DHT22;23500;53.268;8.308;2023-02-24T13:46:30;17.40;66.90
37658;DHT22;23500;53.268;8.308;2023-02-24T13:49:05;17.40;66.90
37658;DHT22;23500;53.268;8.308;2023-02-24T13:51:51;17.40;66.90
37658;DHT22;23500;53.268;8.308;2023-02-24T13:55:07;17.40;67.00
37658;DHT22;23500;53.268;8.308;2023-02-24T14:00:27;17.30;67.10
37658;DHT22;23500;53.268;8.308;2023-02-24T14:02:57;17.30;67.20
37658;DHT22;23500;53.268;8.308;2023-02-24T14:05:33;17.30;67.30
37658;DHT22;23500;53.268;8.308;2023-02-24T14:08:00;17.30;67.30
37658;DHT22;23500;53.268;8.308;2023-02-24T14:10:30;17.30;67.30
37658;DHT22;23500;53.268;8.308;2023-02-24T14:13:07;17.40;67.30
37658;DHT22;23500;53.268;8.308;2023-02-24T14:15:40;17.40;67.20
37658;DHT22;23500;53.268;8.308;2023-02-24T14:18:23;17.40;67.00
37658;DHT22;23500;53.268;8.308;2023-02-24T14:20:51;17.40;67.00
37658;DHT22;23500;53.268;8.308;2023-02-24T14:23:21;17.40;66.90
37658;DHT22;23500;53.268;8.308;2023-02-24T14:26:11;17.50;66.90
37658;DHT22;23500;53.268;8.308;2023-02-24T14:28:39;17.50;66.80
37658;DHT22;23500;53.268;8.308;2023-02-24T14:31:08;17.50;66.70
37658;DHT22;23500;53.268;8.308;2023-02-24T14:33:36;17.50;66.70
37658;DHT22;23500;53.268;8.308;2023-02-24T14:36:05;17.50;66.70
37658;DHT22;23500;53.268;8.308;2023-02-24T14:38:38;17.50;66.70
37658;DHT22;23500;53.268;8.308;2023-02-24T14:41:07;17.40;66.70
37658;DHT22;23500;53.268;8.308;2023-02-24T14:43:41;17.40;66.80
37658;DHT22;23500;53.268;8.308;2023-02-24T14:46:08;17.40;66.90
37658;DHT22;23500;53.268;8.308;2023-02-24T14:48:33;17.40;66.90
37658;DHT22;23500;53.268;8.308;2023-02-24T14:51:08;17.30;66.90
37658;DHT22;23500;53.268;8.308;2023-02-24T14:53:37;17.30;67.00
37658;DHT22;23500;53.268;8.308;2023-02-24T14:56:08;17.30;67.10
37658;DHT22;23500;53.268;8.308;2023-02-24T14:58:49;17.30;67.20
37658;DHT22;23500;53.268;8.308;2023-02-24T15:01:35;17.30;67.30
37658;DHT22;23500;53.268;8.308;2023-02-24T15:06:48;17.30;67.40
37658;DHT22;23500;53.268;8.308;2023-02-24T15:09:21;17.30;67.40
37658;DHT22;23500;53.268;8.308;2023-02-24T15:11:49;17.30;67.30
37658;DHT22;23500;53.268;8.308;2023-02-24T15:14:25;17.30;67.30
37658;DHT22;23500;53.268;8.308;2023-02-24T15:17:13;17.40;67.30
37658;DHT22;23500;53.268;8.308;2023-02-24T15:19:41;17.30;67.90
37658;DHT22;23500;53.268;8.308;2023-02-24T15:22:32;17.40;67.20
37658;DHT22;23500;53.268;8.308;2023-02-24T15:25:18;17.40;67.20
37658;DHT22;23500;53.268;8.308;2023-02-24T15:27:56;17.30;67.10
37658;DHT22;23500;53.268;8.308;2023-02-24T15:33:02;17.30;66.90
37658;DHT22;23500;53.268;8.308;2023-02-24T15:35:28;17.30;66.80
37658;DHT22;23500;53.268;8.308;2023-02-24T15:37:54;17.30;67.00
37658;DHT22;23500;53.268;8.308;2023-02-24T15:40:22;17.30;67.00
37658;DHT22;23500;53.268;8.308;2023-02-24T15:43:09;17.20;67.00
37658;DHT22;23500;53.268;8.308;2023-02-24T15:45:38;17.20;66.80
37658;DHT22;23500;53.268;8.308;2023-02-24T15:48:20;17.20;66.90
37658;DHT22;23500;53.268;8.308;2023-02-24T15:50:46;17.10;67.20
37658;DHT22;23500;53.268;8.308;2023-02-24T15:53:13;17.10;67.50
37658;DHT22;23500;53.268;8.308;2023-02-24T15:55:42;17.10;67.30
37658;DHT22;23500;53.268;8.308;2023-02-24T15:58:16;17.10;67.10
37658;DHT22;23500;53.268;8.308;2023-02-24T16:00:42;17.10;67.30
37658;DHT22;23500;53.268;8.308;2023-02-24T16:03:10;17.10;67.00
37658;DHT22;23500;53.268;8.308;2023-02-24T16:05:36;17.10;67.30
37658;DHT22;23500;53.268;8.308;2023-02-24T16:08:02;17.10;67.20
37658;DHT22;23500;53.268;8.308;2023-02-24T16:10:29;17.20;67.00
37658;DHT22;23500;53.268;8.308;2023-02-24T16:12:56;17.20;66.90
37658;DHT22;23500;53.268;8.308;2023-02-24T16:15:26;17.20;66.50
37658;DHT22;23500;53.268;8.308;2023-02-24T16:17:52;17.20;66.30
37658;DHT22;23500;53.268;8.308;2023-02-24T16:20:22;17.20;65.90
37658;DHT22;23500;53.268;8.308;2023-02-24T16:23:00;17.20;65.90
37658;DHT22;23500;53.268;8.308;2023-02-24T16:25:27;17.20;65.70
37658;DHT22;23500;53.268;8.308;2023-02-24T16:27:53;17.20;65.80
37658;DHT22;23500;53.268;8.308;2023-02-24T16:30:24;17.20;65.90
37658;DHT22;23500;53.268;8.308;2023-02-24T16:32:51;17.10;66.20
37658;DHT22;23500;53.268;8.308;2023-02-24T16:35:16;17.10;66.30
37658;DHT22;23500;53.268;8.308;2023-02-24T16:37:45;17.10;66.40
37658;DHT22;23500;53.268;8.308;2023-02-24T16:40:26;17.10;66.90
37658;DHT22;23500;53.268;8.308;2023-02-24T16:42:55;17.00;66.90
37658;DHT22;23500;53.268;8.308;2023-02-24T16:45:25;17.00;67.10
37658;DHT22;23500;53.268;8.308;2023-02-24T16:47:51;16.90;67.20
37658;DHT22;23500;53.268;8.308;2023-02-24T16:50:31;16.90;67.50
37658;DHT22;23500;53.268;8.308;2023-02-24T16:52:58;16.90;68.00
37658;DHT22;23500;53.268;8.308;2023-02-24T16:55:24;16.90;68.00
37658;DHT22;23500;53.268;8.308;2023-02-24T16:57:50;16.90;67.90
37658;DHT22;23500;53.268;8.308;2023-02-24T17:00:17;16.90;67.60
37658;DHT22;23500;53.268;8.308;2023-02-24T17:02:46;16.90;67.80
37658;DHT22;23500;53.268;8.308;2023-02-24T17:05:30;16.90;67.60
37658;DHT22;23500;53.268;8.308;2023-02-24T17:07:56;16.90;67.80
37658;DHT22;23500;53.268;8.308;2023-02-24T17:10:23;17.00;67.50
37658;DHT22;23500;53.268;8.308;2023-02-24T17:12:49;17.00;67.50
37658;DHT22;23500;53.268;8.308;2023-02-24T17:15:18;17.00;67.60
37658;DHT22;23500;53.268;8.308;2023-02-24T17:17:44;17.00;67.90
37658;DHT22;23500;53.268;8.308;2023-02-24T17:20:15;17.00;67.80
37658;DHT22;23500;53.268;8.308;2023-02-24T17:22:41;17.10;67.80
37658;DHT22;23500;53.268;8.308;2023-02-24T17:25:31;17.00;67.70
37658;DHT22;23500;53.268;8.308;2023-02-24T17:27:57;17.10;67.80
37658;DHT22;23500;53.268;8.308;2023-02-24T17:30:26;17.00;67.50
37658;DHT22;23500;53.268;8.308;2023-02-24T17:32:52;17.00;67.70
37658;DHT22;23500;53.268;8.308;2023-02-24T17:35:18;17.00;67.90
37658;DHT22;23500;53.268;8.308;2023-02-24T17:37:43;17.00;67.90
37658;DHT22;23500;53.268;8.308;2023-02-24T17:40:10;17.00;68.10
37658;DHT22;23500;53.268;8.308;2023-02-24T17:42:36;16.90;68.00
37658;DHT22;23500;53.268;8.308;2023-02-24T17:45:03;16.90;68.10
37658;DHT22;23500;53.268;8.308;2023-02-24T17:47:30;16.90;68.90
37658;DHT22;23500;53.268;8.308;2023-02-24T17:49:56;16.80;68.40
37658;DHT22;23500;53.268;8.308;2023-02-24T17:52:21;16.80;68.10
37658;DHT22;23500;53.268;8.308;2023-02-24T17:54:48;16.80;68.10
37658;DHT22;23500;53.268;8.308;2023-02-24T17:57:13;16.80;68.10
37658;DHT22;23500;53.268;8.308;2023-02-24T17:59:41;16.80;68.40
37658;DHT22;23500;53.268;8.308;2023-02-24T18:02:09;16.80;68.40
37658;DHT22;23500;53.268;8.308;2023-02-24T18:04:35;16.90;67.90
37658;DHT22;23500;53.268;8.308;2023-02-24T18:07:00;16.90;67.80
37658;DHT22;23500;53.268;8.308;2023-02-24T18:09:26;16.90;67.60
37658;DHT22;23500;53.268;8.308;2023-02-24T18:11:52;16.90;67.80
37658;DHT22;23500;53.268;8.308;2023-02-24T18:14:18;17.00;67.80
37658;DHT22;23500;53.268;8.308;2023-02-24T18:16:43;17.00;67.80
37658;DHT22;23500;53.268;8.308;2023-02-24T18:19:09;17.00;68.20
37658;DHT22;23500;53.268;8.308;2023-02-24T18:21:35;17.00;68.10